Kezdőlap
METAR-TAF:

METAR-TAF

Repülőterek :

Denton Municipal Airport

Denton, Texas, Amerikai Egyesült Államok

földrajzi szélesség: 33-12-22N, földrajzi hosszúság: 097-11-56W, magasság: 195 m

Jelenlegi meteorológiai megfigyelések

A jelentés 1 órával és 1 perccel ezelõtt készült, 01:53 UTC
Dél-délkeleti szél 7 kt
Hőmérséklet 29°C
Páratartalom 55%
Légköri nyomás 1017 hPa
Látótávolság: 16.1 km
Derült ég

METAR: KDTO 220153Z 16007KT 10SM CLR 29/19 A3004 RMK AO2 SLP163 T02940194

Idő: 21:54 (02:54 UTC)


TAF: hiányzik

Meteorológiai megfigyelések és előrejelzések több, mint 4000 repülőtéren (METAR és TAF jelentéseket).

A térképen piros és sárga pontok jelzik az elérhető meteorológiai állomásokat.

Mozgassa az egeret a pont fölött, hogy megjelenjen az állomás neve.

Azután kattintson az időjárási megfigyelések és előrejelzések megtekintéséhez.

A térkép megváltoztatása: kattintson a fekete keresztel jelölt zöld gombra ráközelítéshez, a vonallal jelölt zöld gombra távolításhoz, vagy a zöld nyilakra a szomszédos térképek eléréséhez.


METAR-TAF: